sensor_id;sensor_type;location;lat;lon;timestamp;temperature;humidity
82001;SHT30;71522;50.870;3.524;2023-07-20T00:01:38;15.84;88.75
82001;SHT30;71522;50.870;3.524;2023-07-20T00:04:04;15.77;88.80
82001;SHT30;71522;50.870;3.524;2023-07-20T00:06:29;15.70;89.12
82001;SHT30;71522;50.870;3.524;2023-07-20T00:08:55;15.67;89.22
82001;SHT30;71522;50.870;3.524;2023-07-20T00:11:27;15.64;89.36
82001;SHT30;71522;50.870;3.524;2023-07-20T00:13:55;15.59;89.36
82001;SHT30;71522;50.870;3.524;2023-07-20T00:16:25;15.52;89.50
82001;SHT30;71522;50.870;3.524;2023-07-20T00:18:56;15.50;89.28
82001;SHT30;71522;50.870;3.524;2023-07-20T00:21:37;15.43;89.49
82001;SHT30;71522;50.870;3.524;2023-07-20T00:24:09;15.40;89.47
82001;SHT30;71522;50.870;3.524;2023-07-20T00:26:34;15.33;89.96
82001;SHT30;71522;50.870;3.524;2023-07-20T00:29:00;15.32;89.92
82001;SHT30;71522;50.870;3.524;2023-07-20T00:31:27;15.31;90.12
82001;SHT30;71522;50.870;3.524;2023-07-20T00:33:55;15.28;90.14
82001;SHT30;71522;50.870;3.524;2023-07-20T00:36:25;15.25;90.22
82001;SHT30;71522;50.870;3.524;2023-07-20T00:39:31;15.28;90.60
82001;SHT30;71522;50.870;3.524;2023-07-20T00:41:57;15.28;90.48
82001;SHT30;71522;50.870;3.524;2023-07-20T00:44:26;15.28;90.40
82001;SHT30;71522;50.870;3.524;2023-07-20T00:47:15;15.35;90.23
82001;SHT30;71522;50.870;3.524;2023-07-20T00:49:56;15.33;90.32
82001;SHT30;71522;50.870;3.524;2023-07-20T00:52:23;15.35;90.07
82001;SHT30;71522;50.870;3.524;2023-07-20T00:54:58;15.36;90.28
82001;SHT30;71522;50.870;3.524;2023-07-20T00:57:27;15.36;90.17
82001;SHT30;71522;50.870;3.524;2023-07-20T00:59:53;15.36;90.10
82001;SHT30;71522;50.870;3.524;2023-07-20T01:02:39;15.39;90.21
82001;SHT30;71522;50.870;3.524;2023-07-20T01:05:08;15.43;90.13
82001;SHT30;71522;50.870;3.524;2023-07-20T01:07:42;15.49;89.91
82001;SHT30;71522;50.870;3.524;2023-07-20T01:10:21;15.53;89.61
82001;SHT30;71522;50.870;3.524;2023-07-20T01:12:55;15.59;89.53
82001;SHT30;71522;50.870;3.524;2023-07-20T01:15:21;15.63;89.50
82001;SHT30;71522;50.870;3.524;2023-07-20T01:17:47;15.64;89.54
82001;SHT30;71522;50.870;3.524;2023-07-20T01:20:14;15.61;89.48
82001;SHT30;71522;50.870;3.524;2023-07-20T01:23:01;15.59;89.52
82001;SHT30;71522;50.870;3.524;2023-07-20T01:33:48;15.49;89.40
82001;SHT30;71522;50.870;3.524;2023-07-20T01:36:22;15.53;89.54
82001;SHT30;71522;50.870;3.524;2023-07-20T01:38:49;15.47;89.57
82001;SHT30;71522;50.870;3.524;2023-07-20T01:41:15;15.50;89.38
82001;SHT30;71522;50.870;3.524;2023-07-20T01:43:42;15.47;89.22
82001;SHT30;71522;50.870;3.524;2023-07-20T01:46:08;15.44;89.15
82001;SHT30;71522;50.870;3.524;2023-07-20T01:48:33;15.47;89.18
82001;SHT30;71522;50.870;3.524;2023-07-20T01:50:59;15.46;88.96
82001;SHT30;71522;50.870;3.524;2023-07-20T01:53:25;15.40;88.62
82001;SHT30;71522;50.870;3.524;2023-07-20T01:55:56;15.40;88.52
82001;SHT30;71522;50.870;3.524;2023-07-20T01:58:22;15.35;88.48
82001;SHT30;71522;50.870;3.524;2023-07-20T02:00:47;15.31;88.37
82001;SHT30;71522;50.870;3.524;2023-07-20T02:03:13;15.26;88.63
82001;SHT30;71522;50.870;3.524;2023-07-20T02:05:39;15.25;88.85
82001;SHT30;71522;50.870;3.524;2023-07-20T02:08:05;15.25;89.17
82001;SHT30;71522;50.870;3.524;2023-07-20T02:10:30;15.29;89.23
82001;SHT30;71522;50.870;3.524;2023-07-20T02:12:56;15.35;89.42
82001;SHT30;71522;50.870;3.524;2023-07-20T02:15:22;15.46;89.41
82001;SHT30;71522;50.870;3.524;2023-07-20T02:17:48;15.49;89.54
82001;SHT30;71522;50.870;3.524;2023-07-20T02:20:13;15.56;89.67
82001;SHT30;71522;50.870;3.524;2023-07-20T02:22:40;15.63;89.41
82001;SHT30;71522;50.870;3.524;2023-07-20T02:25:07;15.66;89.37
82001;SHT30;71522;50.870;3.524;2023-07-20T02:27:34;15.70;89.31
82001;SHT30;71522;50.870;3.524;2023-07-20T02:29:59;15.71;89.39
82001;SHT30;71522;50.870;3.524;2023-07-20T02:32:25;15.76;89.33
82001;SHT30;71522;50.870;3.524;2023-07-20T02:34:51;15.74;89.14
82001;SHT30;71522;50.870;3.524;2023-07-20T02:37:17;15.76;89.12
82001;SHT30;71522;50.870;3.524;2023-07-20T02:39:43;15.79;89.15
82001;SHT30;71522;50.870;3.524;2023-07-20T02:42:08;15.80;89.13
82001;SHT30;71522;50.870;3.524;2023-07-20T02:44:34;15.81;88.80
82001;SHT30;71522;50.870;3.524;2023-07-20T02:47:00;15.79;88.88
82001;SHT30;71522;50.870;3.524;2023-07-20T02:49:26;15.73;88.94
82001;SHT30;71522;50.870;3.524;2023-07-20T02:51:52;15.70;89.12
82001;SHT30;71522;50.870;3.524;2023-07-20T02:54:18;15.67;89.07
82001;SHT30;71522;50.870;3.524;2023-07-20T02:56:44;15.69;89.01
82001;SHT30;71522;50.870;3.524;2023-07-20T02:59:10;15.69;89.10
82001;SHT30;71522;50.870;3.524;2023-07-20T03:01:35;15.66;89.24
82001;SHT30;71522;50.870;3.524;2023-07-20T03:04:01;15.69;89.17
82001;SHT30;71522;50.870;3.524;2023-07-20T03:06:30;15.70;89.19
82001;SHT30;71522;50.870;3.524;2023-07-20T03:08:56;15.73;89.13
82001;SHT30;71522;50.870;3.524;2023-07-20T03:11:22;15.73;89.08
82001;SHT30;71522;50.870;3.524;2023-07-20T03:13:48;15.74;89.09
82001;SHT30;71522;50.870;3.524;2023-07-20T03:16:17;15.76;88.94
82001;SHT30;71522;50.870;3.524;2023-07-20T03:18:43;15.79;88.90
82001;SHT30;71522;50.870;3.524;2023-07-20T03:21:11;15.80;89.04
82001;SHT30;71522;50.870;3.524;2023-07-20T03:23:38;15.83;88.96
82001;SHT30;71522;50.870;3.524;2023-07-20T03:26:03;15.81;89.01
82001;SHT30;71522;50.870;3.524;2023-07-20T03:28:29;15.83;89.15
82001;SHT30;71522;50.870;3.524;2023-07-20T03:31:10;15.83;88.87
82001;SHT30;71522;50.870;3.524;2023-07-20T03:33:55;15.81;88.97
82001;SHT30;71522;50.870;3.524;2023-07-20T03:39:35;15.83;88.95
82001;SHT30;71522;50.870;3.524;2023-07-20T03:42:01;15.80;89.08
82001;SHT30;71522;50.870;3.524;2023-07-20T03:44:26;15.80;89.24
82001;SHT30;71522;50.870;3.524;2023-07-20T03:47:14;15.79;89.20
82001;SHT30;71522;50.870;3.524;2023-07-20T03:49:59;15.80;89.04
82001;SHT30;71522;50.870;3.524;2023-07-20T03:52:25;15.81;88.98
82001;SHT30;71522;50.870;3.524;2023-07-20T03:54:50;15.87;88.72
82001;SHT30;71522;50.870;3.524;2023-07-20T03:57:20;15.86;88.85
82001;SHT30;71522;50.870;3.524;2023-07-20T03:59:51;15.84;88.76
82001;SHT30;71522;50.870;3.524;2023-07-20T04:02:19;15.87;88.75
82001;SHT30;71522;50.870;3.524;2023-07-20T04:04:48;15.91;88.87
82001;SHT30;71522;50.870;3.524;2023-07-20T04:07:14;15.94;88.61
82001;SHT30;71522;50.870;3.524;2023-07-20T04:09:40;15.96;88.59
82001;SHT30;71522;50.870;3.524;2023-07-20T04:12:06;15.97;88.59
82001;SHT30;71522;50.870;3.524;2023-07-20T04:14:35;15.97;88.69
82001;SHT30;71522;50.870;3.524;2023-07-20T04:17:01;15.97;88.84
82001;SHT30;71522;50.870;3.524;2023-07-20T04:19:45;16.02;88.76
82001;SHT30;71522;50.870;3.524;2023-07-20T04:22:11;16.02;88.57
82001;SHT30;71522;50.870;3.524;2023-07-20T04:24:36;16.07;88.59
82001;SHT30;71522;50.870;3.524;2023-07-20T04:27:04;16.10;88.76
82001;SHT30;71522;50.870;3.524;2023-07-20T04:29:29;16.10;88.25
82001;SHT30;71522;50.870;3.524;2023-07-20T04:31:55;16.10;88.60
82001;SHT30;71522;50.870;3.524;2023-07-20T04:34:21;16.19;88.54
82001;SHT30;71522;50.870;3.524;2023-07-20T04:36:46;16.29;87.90
82001;SHT30;71522;50.870;3.524;2023-07-20T04:39:30;16.29;88.21
82001;SHT30;71522;50.870;3.524;2023-07-20T04:41:57;16.33;87.69
82001;SHT30;71522;50.870;3.524;2023-07-20T04:44:23;16.35;87.65
82001;SHT30;71522;50.870;3.524;2023-07-20T04:46:50;16.42;87.64
82001;SHT30;71522;50.870;3.524;2023-07-20T04:49:21;16.49;87.22
82001;SHT30;71522;50.870;3.524;2023-07-20T04:51:51;16.48;87.44
82001;SHT30;71522;50.870;3.524;2023-07-20T04:54:17;16.49;86.99
82001;SHT30;71522;50.870;3.524;2023-07-20T04:56:44;16.47;87.40
82001;SHT30;71522;50.870;3.524;2023-07-20T04:59:29;16.48;87.17
82001;SHT30;71522;50.870;3.524;2023-07-20T05:02:25;16.49;87.33
82001;SHT30;71522;50.870;3.524;2023-07-20T05:05:12;16.52;86.96
82001;SHT30;71522;50.870;3.524;2023-07-20T05:07:50;16.49;87.01
82001;SHT30;71522;50.870;3.524;2023-07-20T05:10:25;16.42;87.62
82001;SHT30;71522;50.870;3.524;2023-07-20T05:12:50;16.41;87.60
82001;SHT30;71522;50.870;3.524;2023-07-20T05:15:26;16.47;87.58
82001;SHT30;71522;50.870;3.524;2023-07-20T05:18:09;16.52;86.74
82001;SHT30;71522;50.870;3.524;2023-07-20T05:20:35;16.58;87.47
82001;SHT30;71522;50.870;3.524;2023-07-20T05:23:02;16.62;86.86
82001;SHT30;71522;50.870;3.524;2023-07-20T05:25:32;16.72;86.90
82001;SHT30;71522;50.870;3.524;2023-07-20T05:28:18;16.77;86.10
82001;SHT30;71522;50.870;3.524;2023-07-20T05:30:47;16.84;85.70
82001;SHT30;71522;50.870;3.524;2023-07-20T05:33:22;16.83;85.54
82001;SHT30;71522;50.870;3.524;2023-07-20T05:35:48;16.94;86.05
82001;SHT30;71522;50.870;3.524;2023-07-20T05:38:22;16.93;85.56
82001;SHT30;71522;50.870;3.524;2023-07-20T05:41:00;16.94;86.14
82001;SHT30;71522;50.870;3.524;2023-07-20T05:43:55;17.04;86.11
82001;SHT30;71522;50.870;3.524;2023-07-20T05:46:21;17.16;85.07
82001;SHT30;71522;50.870;3.524;2023-07-20T05:49:22;17.26;84.86
82001;SHT30;71522;50.870;3.524;2023-07-20T05:52:09;17.30;85.12
82001;SHT30;71522;50.870;3.524;2023-07-20T05:54:45;17.44;85.27
82001;SHT30;71522;50.870;3.524;2023-07-20T05:57:11;17.54;85.06
82001;SHT30;71522;50.870;3.524;2023-07-20T05:59:37;17.62;85.14
82001;SHT30;71522;50.870;3.524;2023-07-20T06:02:04;17.72;83.81
82001;SHT30;71522;50.870;3.524;2023-07-20T06:04:32;17.69;83.78
82001;SHT30;71522;50.870;3.524;2023-07-20T06:07:17;17.66;83.93
82001;SHT30;71522;50.870;3.524;2023-07-20T06:09:47;17.74;82.60
82001;SHT30;71522;50.870;3.524;2023-07-20T06:12:16;17.83;83.51
82001;SHT30;71522;50.870;3.524;2023-07-20T06:14:42;17.83;82.12
82001;SHT30;71522;50.870;3.524;2023-07-20T06:17:08;17.83;82.55
82001;SHT30;71522;50.870;3.524;2023-07-20T06:19:36;17.82;83.54
82001;SHT30;71522;50.870;3.524;2023-07-20T06:22:02;17.86;84.54
82001;SHT30;71522;50.870;3.524;2023-07-20T06:24:30;17.95;84.85
82001;SHT30;71522;50.870;3.524;2023-07-20T06:27:22;18.05;83.04
82001;SHT30;71522;50.870;3.524;2023-07-20T06:29:48;18.12;84.68
82001;SHT30;71522;50.870;3.524;2023-07-20T06:32:34;18.33;84.62
82001;SHT30;71522;50.870;3.524;2023-07-20T06:35:00;18.53;84.83
82001;SHT30;71522;50.870;3.524;2023-07-20T06:37:25;18.78;84.00
82001;SHT30;71522;50.870;3.524;2023-07-20T06:40:15;18.91;83.65
82001;SHT30;71522;50.870;3.524;2023-07-20T06:42:41;18.99;83.53
82001;SHT30;71522;50.870;3.524;2023-07-20T06:45:19;19.01;81.48
82001;SHT30;71522;50.870;3.524;2023-07-20T06:47:46;19.02;82.69
82001;SHT30;71522;50.870;3.524;2023-07-20T06:50:11;18.94;79.80
82001;SHT30;71522;50.870;3.524;2023-07-20T06:52:38;18.84;80.92
82001;SHT30;71522;50.870;3.524;2023-07-20T06:55:17;18.81;81.33
82001;SHT30;71522;50.870;3.524;2023-07-20T06:57:45;18.89;82.30
82001;SHT30;71522;50.870;3.524;2023-07-20T07:00:11;18.99;82.02
82001;SHT30;71522;50.870;3.524;2023-07-20T07:02:41;19.20;81.40
82001;SHT30;71522;50.870;3.524;2023-07-20T07:05:09;19.46;80.50
82001;SHT30;71522;50.870;3.524;2023-07-20T07:07:35;19.77;80.63
82001;SHT30;71522;50.870;3.524;2023-07-20T07:10:06;20.02;79.28
82001;SHT30;71522;50.870;3.524;2023-07-20T07:12:32;20.07;76.91
82001;SHT30;71522;50.870;3.524;2023-07-20T07:14:58;20.09;78.88
82001;SHT30;71522;50.870;3.524;2023-07-20T07:17:24;20.21;78.82
82001;SHT30;71522;50.870;3.524;2023-07-20T07:19:52;20.25;78.73
82001;SHT30;71522;50.870;3.524;2023-07-20T07:22:20;20.36;78.50
82001;SHT30;71522;50.870;3.524;2023-07-20T07:24:47;20.49;79.32
82001;SHT30;71522;50.870;3.524;2023-07-20T07:27:13;20.56;75.92
82001;SHT30;71522;50.870;3.524;2023-07-20T07:29:42;20.53;75.75
82001;SHT30;71522;50.870;3.524;2023-07-20T07:32:10;20.49;77.58
82001;SHT30;71522;50.870;3.524;2023-07-20T07:34:37;20.40;77.50
82001;SHT30;71522;50.870;3.524;2023-07-20T07:37:04;20.42;78.02
82001;SHT30;71522;50.870;3.524;2023-07-20T07:39:50;20.50;75.72
82001;SHT30;71522;50.870;3.524;2023-07-20T07:42:23;20.59;75.52
82001;SHT30;71522;50.870;3.524;2023-07-20T07:44:49;20.62;74.06
82001;SHT30;71522;50.870;3.524;2023-07-20T07:47:15;20.65;77.11
82001;SHT30;71522;50.870;3.524;2023-07-20T07:49:40;20.81;78.21
82001;SHT30;71522;50.870;3.524;2023-07-20T07:52:06;20.97;74.32
82001;SHT30;71522;50.870;3.524;2023-07-20T07:54:32;21.08;72.46
82001;SHT30;71522;50.870;3.524;2023-07-20T07:56:57;21.23;77.33
82001;SHT30;71522;50.870;3.524;2023-07-20T07:59:23;21.45;76.92
82001;SHT30;71522;50.870;3.524;2023-07-20T08:01:50;21.67;75.34
82001;SHT30;71522;50.870;3.524;2023-07-20T08:04:16;21.79;76.60
82001;SHT30;71522;50.870;3.524;2023-07-20T08:06:45;21.90;72.05
82001;SHT30;71522;50.870;3.524;2023-07-20T08:09:11;21.96;74.26
82001;SHT30;71522;50.870;3.524;2023-07-20T08:11:57;22.07;73.10
82001;SHT30;71522;50.870;3.524;2023-07-20T08:14:22;22.00;72.90
82001;SHT30;71522;50.870;3.524;2023-07-20T08:17:03;22.06;73.80
82001;SHT30;71522;50.870;3.524;2023-07-20T08:19:28;22.14;73.32
82001;SHT30;71522;50.870;3.524;2023-07-20T08:21:54;22.14;73.92
82001;SHT30;71522;50.870;3.524;2023-07-20T08:24:20;22.20;69.65
82001;SHT30;71522;50.870;3.524;2023-07-20T08:26:46;22.21;72.93
82001;SHT30;71522;50.870;3.524;2023-07-20T08:29:13;22.27;73.51
82001;SHT30;71522;50.870;3.524;2023-07-20T08:31:39;22.33;72.61
82001;SHT30;71522;50.870;3.524;2023-07-20T08:34:05;22.51;71.95
82001;SHT30;71522;50.870;3.524;2023-07-20T08:36:31;22.55;70.27
82001;SHT30;71522;50.870;3.524;2023-07-20T08:38:57;22.60;67.28
82001;SHT30;71522;50.870;3.524;2023-07-20T08:41:23;22.14;64.83
82001;SHT30;71522;50.870;3.524;2023-07-20T08:43:59;21.92;68.53
82001;SHT30;71522;50.870;3.524;2023-07-20T08:46:26;22.07;73.42
82001;SHT30;71522;50.870;3.524;2023-07-20T08:48:55;22.21;70.63
82001;SHT30;71522;50.870;3.524;2023-07-20T08:51:30;22.30;73.52
82001;SHT30;71522;50.870;3.524;2023-07-20T08:53:57;22.43;73.34
82001;SHT30;71522;50.870;3.524;2023-07-20T08:56:25;22.50;72.48
82001;SHT30;71522;50.870;3.524;2023-07-20T08:58:53;22.64;68.74
82001;SHT30;71522;50.870;3.524;2023-07-20T09:01:19;22.72;70.33
82001;SHT30;71522;50.870;3.524;2023-07-20T09:03:46;22.69;67.23
82001;SHT30;71522;50.870;3.524;2023-07-20T09:06:12;22.37;66.19
82001;SHT30;71522;50.870;3.524;2023-07-20T09:08:39;22.13;68.19
82001;SHT30;71522;50.870;3.524;2023-07-20T09:11:11;21.89;73.03
82001;SHT30;71522;50.870;3.524;2023-07-20T09:13:38;22.02;73.31
82001;SHT30;71522;50.870;3.524;2023-07-20T09:16:04;22.25;74.46
82001;SHT30;71522;50.870;3.524;2023-07-20T09:18:32;22.17;63.80
82001;SHT30;71522;50.870;3.524;2023-07-20T09:21:06;21.97;68.11
82001;SHT30;71522;50.870;3.524;2023-07-20T09:23:33;21.96;72.79
82001;SHT30;71522;50.870;3.524;2023-07-20T09:26:00;22.33;73.32
82001;SHT30;71522;50.870;3.524;2023-07-20T09:28:26;22.84;72.78
82001;SHT30;71522;50.870;3.524;2023-07-20T09:30:57;23.31;71.65
82001;SHT30;71522;50.870;3.524;2023-07-20T09:33:23;23.58;66.55
82001;SHT30;71522;50.870;3.524;2023-07-20T09:35:48;23.79;68.80
82001;SHT30;71522;50.870;3.524;2023-07-20T09:38:15;23.84;58.90
82001;SHT30;71522;50.870;3.524;2023-07-20T09:40:42;23.82;70.87
82001;SHT30;71522;50.870;3.524;2023-07-20T09:43:15;23.98;66.22
82001;SHT30;71522;50.870;3.524;2023-07-20T09:45:45;23.34;61.23
82001;SHT30;71522;50.870;3.524;2023-07-20T09:48:11;23.13;65.34
82001;SHT30;71522;50.870;3.524;2023-07-20T09:51:18;23.27;66.16
82001;SHT30;71522;50.870;3.524;2023-07-20T09:53:48;23.05;66.01
82001;SHT30;71522;50.870;3.524;2023-07-20T09:56:17;22.98;67.19
82001;SHT30;71522;50.870;3.524;2023-07-20T09:58:47;22.91;64.34
82001;SHT30;71522;50.870;3.524;2023-07-20T10:01:20;22.91;69.61
82001;SHT30;71522;50.870;3.524;2023-07-20T10:03:53;22.94;69.56
82001;SHT30;71522;50.870;3.524;2023-07-20T10:06:23;23.10;67.85
82001;SHT30;71522;50.870;3.524;2023-07-20T10:08:53;23.15;63.40
82001;SHT30;71522;50.870;3.524;2023-07-20T10:11:22;23.22;62.47
82001;SHT30;71522;50.870;3.524;2023-07-20T10:13:53;23.24;61.27
82001;SHT30;71522;50.870;3.524;2023-07-20T10:16:29;23.12;63.10
82001;SHT30;71522;50.870;3.524;2023-07-20T10:22:43;23.91;67.30
82001;SHT30;71522;50.870;3.524;2023-07-20T10:25:10;24.59;67.42
82001;SHT30;71522;50.870;3.524;2023-07-20T10:27:36;24.93;62.16
82001;SHT30;71522;50.870;3.524;2023-07-20T10:30:03;25.02;58.56
82001;SHT30;71522;50.870;3.524;2023-07-20T10:32:30;24.69;59.18
82001;SHT30;71522;50.870;3.524;2023-07-20T10:35:16;24.04;56.27
82001;SHT30;71522;50.870;3.524;2023-07-20T10:38:01;23.27;64.62
82001;SHT30;71522;50.870;3.524;2023-07-20T10:40:37;23.27;67.02
82001;SHT30;71522;50.870;3.524;2023-07-20T10:43:08;23.08;62.61
82001;SHT30;71522;50.870;3.524;2023-07-20T10:45:41;22.76;62.46
82001;SHT30;71522;50.870;3.524;2023-07-20T10:48:22;22.51;65.92
82001;SHT30;71522;50.870;3.524;2023-07-20T10:51:13;22.36;68.90
82001;SHT30;71522;50.870;3.524;2023-07-20T10:53:42;22.18;70.48
82001;SHT30;71522;50.870;3.524;2023-07-20T10:56:15;22.00;70.10
82001;SHT30;71522;50.870;3.524;2023-07-20T10:58:44;21.83;69.66
82001;SHT30;71522;50.870;3.524;2023-07-20T11:01:27;21.62;70.40
82001;SHT30;71522;50.870;3.524;2023-07-20T11:03:58;21.45;71.03
82001;SHT30;71522;50.870;3.524;2023-07-20T11:06:43;21.32;67.81
82001;SHT30;71522;50.870;3.524;2023-07-20T11:09:14;21.23;70.70
82001;SHT30;71522;50.870;3.524;2023-07-20T11:12:08;21.06;69.18
82001;SHT30;71522;50.870;3.524;2023-07-20T11:14:52;20.77;68.16
82001;SHT30;71522;50.870;3.524;2023-07-20T11:17:28;20.59;72.46
82001;SHT30;71522;50.870;3.524;2023-07-20T11:19:56;20.52;67.94
82001;SHT30;71522;50.870;3.524;2023-07-20T11:22:23;20.53;68.02
82001;SHT30;71522;50.870;3.524;2023-07-20T11:24:49;20.69;72.70
82001;SHT30;71522;50.870;3.524;2023-07-20T11:27:29;20.83;69.80
82001;SHT30;71522;50.870;3.524;2023-07-20T11:29:59;20.77;68.94
82001;SHT30;71522;50.870;3.524;2023-07-20T11:32:25;20.46;69.41
82001;SHT30;71522;50.870;3.524;2023-07-20T11:34:51;20.33;69.21
82001;SHT30;71522;50.870;3.524;2023-07-20T11:37:25;20.21;73.47
82001;SHT30;71522;50.870;3.524;2023-07-20T11:39:56;20.09;74.10
82001;SHT30;71522;50.870;3.524;2023-07-20T11:42:22;19.98;73.66
82001;SHT30;71522;50.870;3.524;2023-07-20T11:44:51;19.82;74.65
82001;SHT30;71522;50.870;3.524;2023-07-20T11:47:28;19.60;75.11
82001;SHT30;71522;50.870;3.524;2023-07-20T11:50:15;19.56;79.63
82001;SHT30;71522;50.870;3.524;2023-07-20T11:53:18;19.64;78.75
82001;SHT30;71522;50.870;3.524;2023-07-20T11:55:45;19.67;77.17
82001;SHT30;71522;50.870;3.524;2023-07-20T11:58:13;19.51;77.04
82001;SHT30;71522;50.870;3.524;2023-07-20T12:00:50;19.60;82.21
82001;SHT30;71522;50.870;3.524;2023-07-20T12:03:17;19.57;75.63
82001;SHT30;71522;50.870;3.524;2023-07-20T12:05:43;19.29;76.39
82001;SHT30;71522;50.870;3.524;2023-07-20T12:08:09;19.29;79.04
82001;SHT30;71522;50.870;3.524;2023-07-20T12:10:42;19.66;81.80
82001;SHT30;71522;50.870;3.524;2023-07-20T12:13:10;20.08;81.67
82001;SHT30;71522;50.870;3.524;2023-07-20T12:15:39;20.50;81.31
82001;SHT30;71522;50.870;3.524;2023-07-20T12:18:05;20.90;80.92
82001;SHT30;71522;50.870;3.524;2023-07-20T12:20:34;21.27;79.34
82001;SHT30;71522;50.870;3.524;2023-07-20T12:23:03;21.58;78.07
82001;SHT30;71522;50.870;3.524;2023-07-20T12:25:42;21.82;77.10
82001;SHT30;71522;50.870;3.524;2023-07-20T12:30:39;22.09;75.69
82001;SHT30;71522;50.870;3.524;2023-07-20T12:33:05;22.14;75.14
82001;SHT30;71522;50.870;3.524;2023-07-20T12:35:32;22.21;73.41
82001;SHT30;71522;50.870;3.524;2023-07-20T12:37:58;22.72;73.39
82001;SHT30;71522;50.870;3.524;2023-07-20T12:40:25;23.24;74.20
82001;SHT30;71522;50.870;3.524;2023-07-20T12:42:51;23.63;71.38
82001;SHT30;71522;50.870;3.524;2023-07-20T12:45:16;23.95;66.76
82001;SHT30;71522;50.870;3.524;2023-07-20T12:47:42;23.98;66.56
82001;SHT30;71522;50.870;3.524;2023-07-20T12:50:10;23.93;67.97
82001;SHT30;71522;50.870;3.524;2023-07-20T12:52:37;24.25;70.31
82001;SHT30;71522;50.870;3.524;2023-07-20T12:55:05;24.26;65.56
82001;SHT30;71522;50.870;3.524;2023-07-20T12:57:30;23.79;69.01
82001;SHT30;71522;50.870;3.524;2023-07-20T12:59:56;23.57;70.34
82001;SHT30;71522;50.870;3.524;2023-07-20T13:02:22;23.42;69.75
82001;SHT30;71522;50.870;3.524;2023-07-20T13:04:47;23.45;69.53
82001;SHT30;71522;50.870;3.524;2023-07-20T13:07:13;23.51;71.56
82001;SHT30;71522;50.870;3.524;2023-07-20T13:09:39;23.63;70.35
82001;SHT30;71522;50.870;3.524;2023-07-20T13:12:06;23.67;68.89
82001;SHT30;71522;50.870;3.524;2023-07-20T13:14:32;23.49;69.95
82001;SHT30;71522;50.870;3.524;2023-07-20T13:16:58;23.31;69.48
82001;SHT30;71522;50.870;3.524;2023-07-20T13:19:30;23.09;70.06
82001;SHT30;71522;50.870;3.524;2023-07-20T13:22:06;22.87;69.23
82001;SHT30;71522;50.870;3.524;2023-07-20T13:24:32;22.68;70.84
82001;SHT30;71522;50.870;3.524;2023-07-20T13:26:58;22.48;70.10
82001;SHT30;71522;50.870;3.524;2023-07-20T13:29:24;22.31;71.40
82001;SHT30;71522;50.870;3.524;2023-07-20T13:31:50;22.09;72.31
82001;SHT30;71522;50.870;3.524;2023-07-20T13:34:16;21.93;72.76
82001;SHT30;71522;50.870;3.524;2023-07-20T13:36:41;21.76;73.08
82001;SHT30;71522;50.870;3.524;2023-07-20T13:39:08;21.62;72.38
82001;SHT30;71522;50.870;3.524;2023-07-20T13:41:34;21.48;71.49
82001;SHT30;71522;50.870;3.524;2023-07-20T13:44:00;21.03;70.75
82001;SHT30;71522;50.870;3.524;2023-07-20T13:46:25;20.36;72.65
82001;SHT30;71522;50.870;3.524;2023-07-20T13:48:51;20.08;75.09
82001;SHT30;71522;50.870;3.524;2023-07-20T13:51:17;19.34;79.46
82001;SHT30;71522;50.870;3.524;2023-07-20T13:53:46;18.30;82.89
82001;SHT30;71522;50.870;3.524;2023-07-20T13:56:11;17.24;86.30
82001;SHT30;71522;50.870;3.524;2023-07-20T13:58:40;16.77;89.13
82001;SHT30;71522;50.870;3.524;2023-07-20T14:01:11;16.94;89.85
82001;SHT30;71522;50.870;3.524;2023-07-20T14:03:38;16.94;87.41
82001;SHT30;71522;50.870;3.524;2023-07-20T14:06:05;16.81;87.96
82001;SHT30;71522;50.870;3.524;2023-07-20T14:08:31;16.83;88.43
82001;SHT30;71522;50.870;3.524;2023-07-20T14:10:59;16.94;89.12
82001;SHT30;71522;50.870;3.524;2023-07-20T14:13:26;16.77;87.28
82001;SHT30;71522;50.870;3.524;2023-07-20T14:16:10;16.45;87.18
82001;SHT30;71522;50.870;3.524;2023-07-20T14:18:36;16.35;87.39
82001;SHT30;71522;50.870;3.524;2023-07-20T14:21:22;16.25;88.79
82001;SHT30;71522;50.870;3.524;2023-07-20T14:23:50;16.24;89.02
82001;SHT30;71522;50.870;3.524;2023-07-20T14:26:17;16.21;88.64
82001;SHT30;71522;50.870;3.524;2023-07-20T14:28:42;16.31;89.54
82001;SHT30;71522;50.870;3.524;2023-07-20T14:31:08;16.32;89.39
82001;SHT30;71522;50.870;3.524;2023-07-20T14:33:34;16.41;89.63
82001;SHT30;71522;50.870;3.524;2023-07-20T14:36:02;16.42;89.52
82001;SHT30;71522;50.870;3.524;2023-07-20T14:38:31;16.39;89.06
82001;SHT30;71522;50.870;3.524;2023-07-20T14:40:58;16.49;89.10
82001;SHT30;71522;50.870;3.524;2023-07-20T14:43:33;16.62;89.04
82001;SHT30;71522;50.870;3.524;2023-07-20T14:46:03;16.66;88.49
82001;SHT30;71522;50.870;3.524;2023-07-20T14:48:37;16.73;88.54
82001;SHT30;71522;50.870;3.524;2023-07-20T14:51:13;16.77;88.11
82001;SHT30;71522;50.870;3.524;2023-07-20T14:53:39;16.86;88.26
82001;SHT30;71522;50.870;3.524;2023-07-20T14:56:04;16.89;87.98
82001;SHT30;71522;50.870;3.524;2023-07-20T14:58:31;17.07;88.81
82001;SHT30;71522;50.870;3.524;2023-07-20T15:00:57;17.30;89.67
82001;SHT30;71522;50.870;3.524;2023-07-20T15:03:22;17.61;89.58
82001;SHT30;71522;50.870;3.524;2023-07-20T15:05:48;17.87;88.56
82001;SHT30;71522;50.870;3.524;2023-07-20T15:08:17;18.12;88.09
82001;SHT30;71522;50.870;3.524;2023-07-20T15:10:45;18.43;87.72
82001;SHT30;71522;50.870;3.524;2023-07-20T15:13:12;18.84;87.66
82001;SHT30;71522;50.870;3.524;2023-07-20T15:15:38;19.30;87.53
82001;SHT30;71522;50.870;3.524;2023-07-20T15:18:14;19.84;85.71
82001;SHT30;71522;50.870;3.524;2023-07-20T15:21:00;20.29;84.21
82001;SHT30;71522;50.870;3.524;2023-07-20T15:23:27;21.63;84.42
82001;SHT30;71522;50.870;3.524;2023-07-20T15:25:54;22.76;82.04
82001;SHT30;71522;50.870;3.524;2023-07-20T15:28:23;23.45;78.40
82001;SHT30;71522;50.870;3.524;2023-07-20T15:30:49;23.53;75.16
82001;SHT30;71522;50.870;3.524;2023-07-20T15:33:16;23.94;76.95
82001;SHT30;71522;50.870;3.524;2023-07-20T15:35:42;24.39;76.31
82001;SHT30;71522;50.870;3.524;2023-07-20T15:38:09;24.84;74.77
82001;SHT30;71522;50.870;3.524;2023-07-20T15:40:34;25.24;73.15
82001;SHT30;71522;50.870;3.524;2023-07-20T15:43:01;25.42;72.06
82001;SHT30;71522;50.870;3.524;2023-07-20T15:45:28;25.52;71.02
82001;SHT30;71522;50.870;3.524;2023-07-20T15:47:55;25.34;70.80
82001;SHT30;71522;50.870;3.524;2023-07-20T15:50:22;25.17;70.81
82001;SHT30;71522;50.870;3.524;2023-07-20T15:52:47;25.28;71.66
82001;SHT30;71522;50.870;3.524;2023-07-20T15:55:14;25.44;71.33
82001;SHT30;71522;50.870;3.524;2023-07-20T15:57:40;25.55;71.00
82001;SHT30;71522;50.870;3.524;2023-07-20T16:00:06;25.75;69.82
82001;SHT30;71522;50.870;3.524;2023-07-20T16:02:37;25.61;68.44
82001;SHT30;71522;50.870;3.524;2023-07-20T16:05:03;25.66;70.09